Time;durP1;ratioP1;P1;durP2;ratioP2;P2;SDS_P1;SDS_P2;PMS_P1;PMS_P2;Temp;Humidity;BMP_temperature;BMP_pressure;BME280_temperature;BME280_humidity;BME280_pressure;Samples;Min_cycle;Max_cycle;Signal;HPM_P1;HPM_P2
2022/01/08 00:02:26;;;;;;;4.53;2.08;;;3.80;99.90;;;;;;5014232;28;20196;-88
2022/01/08 00:04:53;;;;;;;4.78;2.22;;;4.00;99.90;;;;;;5002552;28;20342;-88
2022/01/08 00:07:19;;;;;;;4.35;2.33;;;4.30;99.90;;;;;;4999996;28;20400;-88
2022/01/08 00:09:46;;;;;;;6.57;3.28;;;4.20;99.90;;;;;;5001175;28;20284;-88
2022/01/08 00:12:14;;;;;;;6.03;2.30;;;3.80;99.90;;;;;;5000918;28;20267;-88
2022/01/08 05:58:56;;;;;;;3.33;1.33;;;4.70;99.90;;;;;;4887987;29;20208;-89
2022/01/08 06:15:09;;;;;;;2.30;0.70;;;4.90;99.90;;;;;;4971016;23;20252;-88
2022/01/08 06:17:36;;;;;;;2.20;0.60;;;4.50;99.90;;;;;;4985172;28;20258;-88
2022/01/08 06:20:06;;;;;;;2.55;0.65;;;4.60;99.90;;;;;;4984253;28;20243;-88
2022/01/08 06:22:33;;;;;;;2.05;0.57;;;4.50;99.90;;;;;;4977604;28;20642;-88
2022/01/08 06:24:59;;;;;;;2.00;0.50;;;4.20;99.90;;;;;;4977111;28;20229;-88
2022/01/08 06:27:26;;;;;;;2.50;0.60;;;4.40;99.90;;;;;;4978512;28;20297;-89
2022/01/08 06:29:53;;;;;;;2.83;0.80;;;4.70;99.90;;;;;;4984732;28;20251;-88
2022/01/08 06:32:20;;;;;;;2.33;0.70;;;4.40;99.90;;;;;;4984009;28;20242;-88
2022/01/08 06:34:47;;;;;;;2.30;0.70;;;4.40;99.90;;;;;;4981981;28;20217;-88
2022/01/08 06:37:15;;;;;;;2.13;0.60;;;4.30;99.90;;;;;;4978345;28;20205;-88
2022/01/08 06:39:42;;;;;;;2.30;0.70;;;4.20;99.90;;;;;;4983258;28;20278;-88
2022/01/08 06:42:09;;;;;;;2.20;0.60;;;4.20;99.90;;;;;;4980508;28;20206;-89
2022/01/08 06:44:36;;;;;;;2.13;0.60;;;4.30;99.90;;;;;;4977779;28;20279;-88
2022/01/08 06:47:03;;;;;;;2.00;0.50;;;4.30;99.90;;;;;;4976932;28;20205;-88
2022/01/08 06:49:31;;;;;;;2.70;0.70;;;4.20;99.90;;;;;;4977103;28;20283;-88
2022/01/08 06:51:58;;;;;;;2.53;0.98;;;4.40;99.90;;;;;;4977038;28;20204;-88
2022/01/08 06:54:26;;;;;;;2.10;0.70;;;4.40;99.90;;;;;;4976405;28;20209;-88
2022/01/08 06:56:53;;;;;;;2.47;0.70;;;4.20;99.90;;;;;;4977852;28;20324;-89
2022/01/08 06:59:20;;;;;;;2.80;0.88;;;4.40;99.90;;;;;;4976948;28;20206;-89
2022/01/08 07:01:47;;;;;;;2.40;0.88;;;4.30;99.90;;;;;;4976876;28;20305;-88
2022/01/08 07:04:14;;;;;;;2.20;0.70;;;4.20;99.90;;;;;;4978768;28;20216;-88
2022/01/08 07:06:40;;;;;;;2.33;0.98;;;4.40;99.90;;;;;;4978332;28;20268;-88
2022/01/08 07:09:07;;;;;;;3.50;1.08;;;4.40;99.90;;;;;;4977493;28;20226;-88
2022/01/08 07:11:36;;;;;;;2.90;0.63;;;4.10;99.90;;;;;;4988071;28;20248;-88
2022/01/08 07:14:02;;;;;;;2.60;1.00;;;4.00;99.90;;;;;;4995388;28;20271;-88
2022/01/08 07:16:29;;;;;;;2.40;0.73;;;4.10;99.90;;;;;;4983544;28;20238;-88
2022/01/08 07:18:56;;;;;;;2.53;0.70;;;4.40;99.90;;;;;;4983233;28;20248;-88
2022/01/08 07:21:23;;;;;;;2.45;0.80;;;4.20;99.90;;;;;;4995328;28;20234;-88
2022/01/08 07:23:50;;;;;;;3.75;1.20;;;4.30;99.90;;;;;;4983639;28;20213;-88
2022/01/08 07:26:17;;;;;;;2.40;0.75;;;4.00;99.90;;;;;;4988262;28;20248;-88
2022/01/08 07:28:45;;;;;;;4.13;1.25;;;3.80;99.90;;;;;;4978791;28;20236;-88
2022/01/08 07:31:12;;;;;;;3.35;0.90;;;4.00;99.90;;;;;;4979940;28;20217;-86
2022/01/08 07:33:39;;;;;;;3.63;1.15;;;4.50;99.90;;;;;;4984615;28;20186;-87
2022/01/08 07:36:06;;;;;;;3.05;1.10;;;3.80;99.90;;;;;;4984830;28;20269;-87
2022/01/08 07:38:33;;;;;;;3.30;1.40;;;4.10;99.90;;;;;;4976454;28;20686;-88
2022/01/08 07:41:00;;;;;;;2.88;1.10;;;4.50;99.90;;;;;;4978963;28;20206;-88
2022/01/08 07:43:27;;;;;;;2.95;1.17;;;3.90;99.90;;;;;;4977259;28;20219;-88
2022/01/08 07:45:55;;;;;;;3.90;1.60;;;4.50;99.90;;;;;;4978882;28;20230;-88
2022/01/08 07:48:22;;;;;;;2.70;1.20;;;4.30;99.90;;;;;;4976790;28;20688;-87
2022/01/08 07:50:49;;;;;;;4.10;1.85;;;4.30;99.90;;;;;;4977321;28;20213;-88
2022/01/08 07:53:15;;;;;;;5.18;1.20;;;4.30;99.90;;;;;;4976265;28;20285;-88
2022/01/08 07:55:42;;;;;;;4.07;1.60;;;4.40;99.90;;;;;;4976556;28;20313;-88
2022/01/08 07:58:09;;;;;;;3.08;1.20;;;4.50;99.90;;;;;;4978483;28;20201;-89
2022/01/08 08:00:36;;;;;;;3.50;1.77;;;4.40;99.90;;;;;;4976350;28;20217;-88
2022/01/08 08:03:04;;;;;;;3.20;1.80;;;4.40;99.90;;;;;;4977106;28;20217;-89
2022/01/08 08:05:32;;;;;;;5.32;1.80;;;4.50;99.90;;;;;;4976128;28;20229;-88
2022/01/08 08:07:59;;;;;;;4.20;2.00;;;4.10;99.90;;;;;;4976914;28;20263;-88
2022/01/08 08:10:28;;;;;;;3.63;1.40;;;4.10;99.90;;;;;;4976129;28;20220;-88
2022/01/08 08:12:55;;;;;;;3.80;1.90;;;4.30;99.90;;;;;;4978172;28;20217;-88
2022/01/08 08:15:23;;;;;;;4.40;1.63;;;4.00;99.90;;;;;;4976559;28;20234;-88
2022/01/08 08:17:50;;;;;;;5.22;1.95;;;4.60;99.90;;;;;;4978459;28;20216;-88
2022/01/08 08:20:18;;;;;;;3.60;1.65;;;4.50;99.90;;;;;;4976689;28;20257;-88
2022/01/08 08:22:45;;;;;;;3.83;1.90;;;4.50;99.90;;;;;;4976714;28;20250;-88
2022/01/08 08:25:13;;;;;;;4.25;1.77;;;4.60;99.90;;;;;;4976369;28;20258;-88
2022/01/08 08:27:40;;;;;;;4.70;2.03;;;4.60;99.90;;;;;;4980108;28;20296;-88
2022/01/08 08:30:09;;;;;;;4.05;1.95;;;4.70;99.90;;;;;;4981118;28;20230;-87
2022/01/08 08:32:35;;;;;;;3.95;1.80;;;4.70;99.90;;;;;;4982562;28;20209;-89
2022/01/08 08:35:02;;;;;;;4.13;1.90;;;4.60;99.90;;;;;;4983462;28;20229;-89
2022/01/08 08:37:31;;;;;;;3.72;1.50;;;4.80;99.90;;;;;;4981637;28;20289;-88
2022/01/08 08:39:58;;;;;;;13.38;2.05;;;4.80;99.90;;;;;;4980789;28;20284;-88
2022/01/08 08:42:25;;;;;;;4.05;1.60;;;4.80;99.90;;;;;;4986942;28;20220;-87
2022/01/08 08:44:51;;;;;;;3.15;1.40;;;4.70;99.90;;;;;;4981537;28;20239;-87
2022/01/08 08:47:20;;;;;;;3.28;1.55;;;4.80;99.90;;;;;;4980718;28;20233;-88
2022/01/08 08:49:47;;;;;;;5.72;1.42;;;4.90;99.90;;;;;;4985512;28;20228;-88
2022/01/08 08:52:14;;;;;;;4.25;1.40;;;5.00;99.90;;;;;;4987197;28;20292;-87
2022/01/08 08:54:43;;;;;;;3.42;1.10;;;4.70;99.90;;;;;;4979910;28;20211;-88
2022/01/08 08:57:10;;;;;;;3.42;1.38;;;4.80;99.90;;;;;;4982756;28;20278;-88
2022/01/08 08:59:37;;;;;;;4.85;1.80;;;4.80;99.90;;;;;;4982045;28;20301;-88
2022/01/08 09:02:05;;;;;;;4.70;1.40;;;4.50;99.90;;;;;;4980883;28;20209;-88
2022/01/08 09:04:32;;;;;;;3.95;1.60;;;5.10;99.90;;;;;;4980613;28;20265;-88
2022/01/08 09:06:59;;;;;;;3.50;1.80;;;4.90;99.90;;;;;;4981023;28;20209;-89
2022/01/08 09:09:26;;;;;;;3.80;1.80;;;5.00;99.90;;;;;;4982292;28;20224;-88
2022/01/08 09:11:54;;;;;;;4.55;1.42;;;4.70;99.90;;;;;;4982698;28;20290;-88
2022/01/08 09:14:21;;;;;;;10.30;1.70;;;5.10;99.90;;;;;;4981340;28;20223;-88
2022/01/08 09:16:52;;;;;;;6.13;1.52;;;5.20;99.90;;;;;;4982582;28;20317;-88
2022/01/08 09:19:19;;;;;;;4.25;1.60;;;5.20;99.90;;;;;;4996612;28;20214;-87
2022/01/08 09:21:46;;;;;;;4.00;1.60;;;5.00;99.90;;;;;;4999376;28;20206;-88
2022/01/08 09:24:14;;;;;;;4.38;1.80;;;4.60;99.90;;;;;;4998360;28;20222;-88
2022/01/08 09:26:41;;;;;;;5.38;1.25;;;5.20;99.90;;;;;;4998133;28;20262;-87
2022/01/08 09:29:09;;;;;;;7.90;1.80;;;5.20;99.90;;;;;;4984792;28;20264;-88
2022/01/08 09:31:36;;;;;;;3.80;2.00;;;5.00;99.90;;;;;;4981498;28;20206;-88
2022/01/08 09:34:07;;;;;;;5.47;2.17;;;4.90;99.90;;;;;;4981369;28;20241;-88
2022/01/08 09:36:35;;;;;;;4.50;2.00;;;4.90;99.90;;;;;;4981659;28;20254;-88
2022/01/08 09:39:02;;;;;;;3.05;1.70;;;5.10;99.90;;;;;;4982868;28;20221;-88
2022/01/08 09:41:29;;;;;;;4.28;1.63;;;4.90;99.90;;;;;;4983758;28;20388;-88
2022/01/08 09:43:56;;;;;;;3.75;1.90;;;5.00;99.90;;;;;;4983127;28;20561;-88
2022/01/08 09:46:24;;;;;;;5.78;2.05;;;5.10;99.90;;;;;;4982828;28;20270;-88
2022/01/08 09:48:51;;;;;;;5.40;1.73;;;5.00;99.90;;;;;;4984915;28;20252;-88
2022/01/08 09:51:19;;;;;;;4.70;2.10;;;5.00;99.90;;;;;;4981708;28;20249;-88
2022/01/08 09:53:47;;;;;;;3.03;1.60;;;5.00;99.90;;;;;;4987410;28;20221;-88
2022/01/08 09:56:15;;;;;;;3.50;1.52;;;4.60;99.90;;;;;;4980011;28;20244;-88
2022/01/08 09:58:42;;;;;;;4.88;1.67;;;5.00;99.90;;;;;;4979716;28;20209;-89
2022/01/08 10:01:26;;;;;;;5.80;1.95;;;5.10;99.90;;;;;;4980901;28;20380;-87
2022/01/08 10:03:53;;;;;;;4.85;2.35;;;5.20;99.90;;;;;;4980199;28;20192;-88
2022/01/08 10:06:24;;;;;;;4.93;2.30;;;4.80;99.90;;;;;;4985751;28;20231;-88
2022/01/08 10:08:53;;;;;;;4.88;2.10;;;5.00;99.90;;;;;;4985235;28;20245;-88
2022/01/08 10:11:24;;;;;;;4.05;1.65;;;5.30;99.90;;;;;;4979358;28;20246;-88
2022/01/08 10:14:00;;;;;;;5.50;2.20;;;5.40;99.90;;;;;;4980618;28;20205;-89
2022/01/08 10:19:19;;;;;;;3.70;1.83;;;5.20;99.90;;;;;;4987175;28;20536;-89
2022/01/08 10:21:46;;;;;;;4.53;2.20;;;5.60;99.90;;;;;;4982549;28;20205;-88
2022/01/08 10:24:19;;;;;;;4.60;1.88;;;5.40;99.90;;;;;;4979838;28;20293;-89
2022/01/08 10:26:49;;;;;;;3.70;1.80;;;5.40;99.90;;;;;;4979028;28;20255;-88
2022/01/08 10:29:18;;;;;;;6.97;1.80;;;5.50;99.90;;;;;;4978341;28;20235;-88
2022/01/08 10:31:48;;;;;;;4.45;1.63;;;5.50;99.90;;;;;;4978885;28;20314;-88
2022/01/08 10:34:17;;;;;;;4.80;1.75;;;5.70;99.90;;;;;;4980060;28;20617;-88
2022/01/08 10:36:47;;;;;;;6.78;1.90;;;5.60;99.90;;;;;;4978517;28;20238;-89
2022/01/08 10:39:21;;;;;;;3.88;1.80;;;5.80;99.90;;;;;;4981468;28;20209;-88
2022/01/08 10:41:50;;;;;;;5.47;2.40;;;5.30;99.90;;;;;;4994860;28;20258;-89
2022/01/08 10:44:19;;;;;;;4.25;1.42;;;5.80;99.90;;;;;;4994475;28;20267;-88
2022/01/08 10:46:58;;;;;;;9.40;2.08;;;5.50;99.90;;;;;;4985134;28;20545;-88
2022/01/08 10:49:31;;;;;;;6.05;1.70;;;5.30;99.90;;;;;;4990877;28;20214;-88
2022/01/08 10:51:58;;;;;;;4.65;1.80;;;5.30;99.90;;;;;;4988313;28;20377;-88
2022/01/08 10:54:27;;;;;;;4.80;2.13;;;5.50;99.90;;;;;;4980108;28;20316;-88
2022/01/08 10:56:56;;;;;;;5.60;1.60;;;5.40;99.90;;;;;;4979244;28;20290;-88
2022/01/08 10:59:26;;;;;;;5.25;2.20;;;5.40;99.90;;;;;;4978246;28;20211;-88
2022/01/08 11:02:00;;;;;;;4.90;1.60;;;5.40;99.90;;;;;;4978779;28;20233;-88
2022/01/08 11:04:36;;;;;;;4.80;1.70;;;5.60;99.90;;;;;;4978703;28;20213;-88
2022/01/08 11:07:05;;;;;;;3.20;1.42;;;5.50;99.90;;;;;;4979164;28;20576;-88
2022/01/08 11:09:35;;;;;;;7.38;2.25;;;6.00;99.90;;;;;;4986410;28;20232;-88
2022/01/08 11:12:03;;;;;;;4.32;2.10;;;5.90;99.90;;;;;;4978352;28;20217;-88
2022/01/08 11:17:23;;;;;;;5.78;2.33;;;5.50;99.90;;;;;;4979213;28;20198;-88
2022/01/08 11:19:51;;;;;;;4.55;1.85;;;5.70;99.90;;;;;;4980106;28;20193;-88
2022/01/08 11:22:20;;;;;;;5.18;2.47;;;5.70;99.90;;;;;;4994719;28;20225;-87
2022/01/08 11:24:56;;;;;;;5.68;1.80;;;5.50;99.90;;;;;;4995612;28;20317;-88
2022/01/08 11:27:26;;;;;;;4.50;1.58;;;5.80;99.90;;;;;;4992099;28;20193;-87
2022/01/08 11:30:03;;;;;;;7.57;1.70;;;5.30;99.90;;;;;;4981221;28;20230;-89
2022/01/08 11:32:32;;;;;;;6.43;1.98;;;5.70;99.90;;;;;;4979850;28;20231;-88
2022/01/08 11:35:02;;;;;;;3.70;1.60;;;5.70;99.90;;;;;;4979944;28;20310;-88
2022/01/08 11:37:33;;;;;;;5.75;1.80;;;5.60;99.90;;;;;;4980173;28;20267;-89
2022/01/08 11:40:05;;;;;;;4.60;1.65;;;5.40;99.90;;;;;;4979142;28;20223;-88
2022/01/08 11:42:35;;;;;;;6.25;2.20;;;5.70;99.90;;;;;;4979957;28;20195;-88
2022/01/08 11:45:05;;;;;;;6.10;2.35;;;5.80;99.90;;;;;;4978817;28;20233;-88
2022/01/08 11:47:33;;;;;;;6.90;1.90;;;5.90;99.90;;;;;;4978326;28;20703;-88
2022/01/08 11:50:06;;;;;;;10.40;2.30;;;6.00;99.90;;;;;;4978494;28;20251;-88
2022/01/08 11:52:33;;;;;;;10.52;2.10;;;6.00;99.90;;;;;;4978353;28;20229;-88
2022/01/08 11:55:01;;;;;;;8.10;2.00;;;6.10;99.90;;;;;;4977978;28;20242;-88
2022/01/08 11:57:31;;;;;;;8.52;1.90;;;6.20;99.90;;;;;;4977983;28;20290;-88
2022/01/08 12:00:01;;;;;;;5.32;1.50;;;6.00;99.90;;;;;;4979241;28;20208;-88
2022/01/08 12:02:41;;;;;;;5.03;1.60;;;5.90;99.90;;;;;;4981305;28;20278;-88
2022/01/08 12:05:10;;;;;;;7.55;1.80;;;5.90;99.90;;;;;;4984564;28;20255;-88
2022/01/08 12:07:40;;;;;;;4.60;1.60;;;5.90;99.90;;;;;;4987809;28;20234;-88
2022/01/08 12:10:16;;;;;;;5.40;1.80;;;5.60;99.90;;;;;;4987208;28;20326;-89
2022/01/08 12:12:55;;;;;;;4.22;1.83;;;5.90;99.90;;;;;;4982554;28;20208;-89
2022/01/08 12:15:47;;;;;;;5.65;1.60;;;5.50;99.90;;;;;;5006396;23;20238;-88
2022/01/08 12:18:17;;;;;;;7.22;1.95;;;5.90;99.90;;;;;;4969390;28;20686;-89
2022/01/08 12:20:47;;;;;;;5.18;1.85;;;5.50;99.90;;;;;;4998941;28;20227;-89
2022/01/08 12:23:35;;;;;;;3.83;1.48;;;5.30;99.90;;;;;;4992337;28;20286;-89
2022/01/08 12:26:04;;;;;;;6.20;2.60;;;5.90;99.90;;;;;;4988217;28;20239;-89
2022/01/08 12:28:56;;;;;;;6.15;1.40;;;6.00;99.90;;;;;;4988117;28;20500;-89
2022/01/08 12:31:39;;;;;;;3.40;2.00;;;6.10;99.90;;;;;;4987607;28;20239;-87
2022/01/08 12:34:48;;;;;;;4.18;1.50;;;5.90;99.90;;;;;;4986755;28;20195;-88
2022/01/08 12:37:19;;;;;;;8.32;3.22;;;5.70;99.90;;;;;;4987618;28;20231;-89
2022/01/08 12:39:54;;;;;;;5.60;1.95;;;5.40;99.90;;;;;;4990839;28;20548;-88
2022/01/08 12:42:33;;;;;;;7.32;2.17;;;5.40;99.90;;;;;;4998381;28;20206;-87
2022/01/08 12:45:02;;;;;;;6.15;2.80;;;5.60;99.90;;;;;;4999681;28;20180;-89
2022/01/08 12:47:40;;;;;;;4.45;2.10;;;5.10;99.90;;;;;;4997396;28;20637;-89
2022/01/08 12:50:22;;;;;;;5.53;2.20;;;5.10;99.90;;;;;;4989076;28;20237;-88
2022/01/08 12:53:14;;;;;;;6.47;2.08;;;5.60;99.90;;;;;;4989581;28;20215;-89
2022/01/08 12:55:43;;;;;;;5.47;2.28;;;5.70;99.90;;;;;;4990030;28;20353;-88
2022/01/08 12:58:14;;;;;;;4.65;2.20;;;5.50;99.90;;;;;;4989826;28;20230;-87
2022/01/08 13:00:54;;;;;;;7.43;2.05;;;5.50;99.90;;;;;;4988638;28;20211;-89
2022/01/08 13:03:23;;;;;;;5.55;1.95;;;5.20;99.90;;;;;;4993186;28;20199;-87
2022/01/08 13:05:50;;;;;;;5.15;2.00;;;5.20;99.90;;;;;;4996141;28;20229;-89
2022/01/08 13:08:27;;;;;;;5.80;1.70;;;5.80;99.90;;;;;;4992419;28;20302;-89
2022/01/08 13:10:57;;;;;;;3.97;1.67;;;5.30;99.90;;;;;;4991059;28;20222;-89
2022/01/08 13:13:24;;;;;;;3.80;1.45;;;5.70;99.90;;;;;;4990270;28;20199;-89
2022/01/08 13:15:51;;;;;;;2.90;1.38;;;5.40;99.90;;;;;;4988313;28;20244;-89
2022/01/08 13:18:19;;;;;;;5.45;1.95;;;5.80;99.90;;;;;;4988076;28;20258;-88
2022/01/08 13:20:46;;;;;;;4.95;1.80;;;5.70;99.90;;;;;;4988030;28;20298;-88
2022/01/08 13:23:14;;;;;;;4.90;2.42;;;5.70;99.90;;;;;;4988129;28;20215;-89
2022/01/08 13:25:51;;;;;;;4.80;1.92;;;5.40;99.90;;;;;;4987976;28;20795;-88
2022/01/08 13:28:21;;;;;;;4.70;1.60;;;5.40;99.90;;;;;;4988641;28;20202;-88
2022/01/08 13:30:48;;;;;;;5.72;2.00;;;5.50;99.90;;;;;;4992664;28;20235;-88
2022/01/08 13:33:23;;;;;;;3.97;1.73;;;5.70;99.90;;;;;;4997760;28;20279;-89
2022/01/08 13:35:59;;;;;;;4.57;2.05;;;5.40;99.90;;;;;;4993625;28;20253;-87
2022/01/08 13:38:30;;;;;;;4.80;1.80;;;5.60;99.90;;;;;;4992008;28;20222;-88
2022/01/08 13:41:07;;;;;;;6.95;1.90;;;5.60;99.90;;;;;;4990128;28;20230;-88
2022/01/08 13:43:49;;;;;;;6.50;2.90;;;5.60;99.90;;;;;;4991869;28;20198;-88
2022/01/08 13:46:16;;;;;;;3.58;1.75;;;5.70;99.90;;;;;;4990448;28;20251;-88
2022/01/08 13:48:43;;;;;;;3.70;1.73;;;5.70;99.90;;;;;;4989830;28;20298;-88
2022/01/08 13:51:10;;;;;;;5.72;2.13;;;5.60;99.90;;;;;;4989279;28;20236;-89
2022/01/08 13:53:37;;;;;;;5.95;1.95;;;5.40;99.90;;;;;;4991323;28;20221;-88
2022/01/08 13:56:08;;;;;;;5.10;2.10;;;5.30;99.90;;;;;;4996143;28;20215;-87
2022/01/08 13:58:35;;;;;;;5.65;1.67;;;5.70;99.90;;;;;;4997526;28;20225;-88
2022/01/08 14:01:05;;;;;;;4.72;2.30;;;5.70;99.90;;;;;;4993249;28;20213;-88
2022/01/08 14:03:39;;;;;;;7.88;2.40;;;5.50;99.90;;;;;;4989398;28;20230;-89
2022/01/08 14:06:07;;;;;;;7.60;2.45;;;5.20;99.90;;;;;;4995287;28;20226;-88
2022/01/08 14:08:35;;;;;;;4.95;1.90;;;5.20;99.90;;;;;;4997937;28;20267;-88
2022/01/08 14:11:03;;;;;;;5.75;2.20;;;5.30;99.90;;;;;;4993672;28;20294;-87
2022/01/08 14:13:34;;;;;;;3.85;1.67;;;5.60;99.90;;;;;;4994794;28;20211;-89
2022/01/08 14:16:02;;;;;;;8.52;3.15;;;5.60;99.90;;;;;;4996851;28;20286;-88
2022/01/08 14:18:30;;;;;;;3.65;1.50;;;5.30;99.90;;;;;;4992235;28;20280;-88
2022/01/08 14:21:12;;;;;;;5.57;1.92;;;5.40;99.90;;;;;;4991932;28;20205;-89
2022/01/08 14:23:39;;;;;;;3.90;1.88;;;5.40;99.90;;;;;;4987901;28;20211;-89
2022/01/08 14:26:13;;;;;;;3.95;1.70;;;5.40;99.90;;;;;;4987037;28;20241;-88
2022/01/08 14:28:42;;;;;;;3.10;1.40;;;5.70;99.90;;;;;;4991171;28;20202;-89
2022/01/08 14:31:15;;;;;;;5.07;2.78;;;5.70;99.90;;;;;;4988165;28;20270;-88
2022/01/08 14:34:03;;;;;;;3.90;1.60;;;5.80;99.90;;;;;;4984987;28;20210;-88
2022/01/08 14:36:45;;;;;;;7.25;2.00;;;5.80;99.90;;;;;;4984558;28;20266;-89
2022/01/08 14:39:12;;;;;;;5.35;1.67;;;5.40;99.90;;;;;;4984406;28;20238;-89
2022/01/08 14:41:40;;;;;;;7.18;1.40;;;5.80;99.90;;;;;;4982771;28;20759;-89
2022/01/08 14:44:08;;;;;;;5.53;1.75;;;5.50;99.90;;;;;;4984951;28;20242;-88
2022/01/08 14:46:39;;;;;;;4.07;1.80;;;5.80;99.90;;;;;;4984480;28;20260;-88
2022/01/08 14:49:05;;;;;;;4.60;2.05;;;5.70;99.90;;;;;;4983885;28;20594;-88
2022/01/08 14:51:32;;;;;;;3.22;1.60;;;5.60;99.90;;;;;;4985371;28;20225;-89
2022/01/08 14:54:05;;;;;;;3.97;1.83;;;5.40;99.90;;;;;;4984588;28;20225;-88
2022/01/08 14:56:32;;;;;;;5.13;2.05;;;5.50;99.90;;;;;;4983883;28;20250;-88
2022/01/08 14:59:02;;;;;;;5.07;1.83;;;5.50;99.90;;;;;;4984553;28;20233;-88
2022/01/08 15:01:30;;;;;;;3.97;2.10;;;5.50;99.90;;;;;;4985274;28;20212;-87
2022/01/08 15:04:01;;;;;;;6.40;3.28;;;5.10;99.90;;;;;;4985934;28;20211;-89
2022/01/08 15:06:28;;;;;;;4.65;2.28;;;5.50;99.90;;;;;;4984418;28;20234;-88
2022/01/08 15:08:55;;;;;;;5.55;2.40;;;5.20;99.90;;;;;;4984844;28;20277;-88
2022/01/08 15:11:22;;;;;;;4.82;1.70;;;5.70;99.90;;;;;;4986046;28;20262;-87
2022/01/08 15:13:51;;;;;;;4.38;2.15;;;5.50;99.90;;;;;;4990062;28;20568;-89
2022/01/08 15:16:24;;;;;;;5.05;2.00;;;5.60;99.90;;;;;;4991667;28;20288;-89
2022/01/08 15:18:52;;;;;;;5.70;2.80;;;5.30;99.90;;;;;;4985014;28;20295;-88
2022/01/08 15:21:20;;;;;;;4.78;1.83;;;5.10;99.90;;;;;;4985146;28;20215;-88
2022/01/08 15:23:48;;;;;;;4.80;2.20;;;5.40;99.90;;;;;;4984492;28;20211;-89
2022/01/08 15:26:15;;;;;;;4.47;2.20;;;5.70;99.90;;;;;;4984807;28;20261;-88
2022/01/08 15:28:42;;;;;;;4.45;1.95;;;5.20;99.90;;;;;;4985418;28;20649;-86
2022/01/08 15:31:10;;;;;;;4.40;2.15;;;5.40;99.90;;;;;;4985933;28;20235;-88
2022/01/08 15:33:37;;;;;;;4.22;1.90;;;5.60;99.90;;;;;;4990292;28;20202;-89
2022/01/08 15:36:07;;;;;;;8.20;2.42;;;5.70;99.90;;;;;;4989670;28;20222;-89
2022/01/08 15:38:34;;;;;;;5.78;2.50;;;5.20;99.90;;;;;;4995294;28;20296;-89
2022/01/08 15:41:01;;;;;;;4.03;1.67;;;5.20;99.90;;;;;;4984754;28;20207;-89
2022/01/08 15:43:30;;;;;;;3.83;1.70;;;5.40;99.90;;;;;;4987152;28;20272;-88
2022/01/08 15:45:57;;;;;;;4.30;1.75;;;5.40;99.90;;;;;;4996659;28;20227;-88
2022/01/08 15:48:24;;;;;;;3.88;1.33;;;5.80;99.90;;;;;;4986079;28;20630;-89
2022/01/08 15:50:51;;;;;;;3.70;1.50;;;5.50;99.90;;;;;;4982456;28;20251;-88
2022/01/08 15:53:20;;;;;;;3.70;1.52;;;5.30;99.90;;;;;;4986457;28;20214;-89
2022/01/08 15:55:47;;;;;;;4.38;1.98;;;5.70;99.90;;;;;;4986579;28;20227;-89
2022/01/08 15:58:14;;;;;;;4.10;1.70;;;5.30;99.90;;;;;;4987902;28;20214;-88
2022/01/08 16:00:42;;;;;;;4.22;1.85;;;5.70;99.90;;;;;;4987021;28;20239;-88
2022/01/08 16:03:09;;;;;;;4.22;1.45;;;5.40;99.90;;;;;;4982222;28;20217;-88
2022/01/08 16:05:37;;;;;;;5.82;1.73;;;5.60;99.90;;;;;;4982746;28;20314;-88
2022/01/08 16:08:07;;;;;;;3.70;1.20;;;5.60;99.90;;;;;;4983218;28;20214;-88
2022/01/08 16:10:36;;;;;;;4.15;1.85;;;5.60;99.90;;;;;;4986331;28;20302;-89
2022/01/08 16:13:05;;;;;;;4.65;2.03;;;5.60;99.90;;;;;;4993546;28;20202;-89
2022/01/08 16:15:38;;;;;;;3.25;1.70;;;5.50;99.90;;;;;;4988665;28;20261;-88
2022/01/08 16:18:05;;;;;;;4.60;1.90;;;5.60;99.90;;;;;;4990019;28;20295;-87
2022/01/08 16:20:33;;;;;;;4.30;2.05;;;5.60;99.90;;;;;;4982751;28;20222;-88
2022/01/08 16:23:00;;;;;;;6.25;3.03;;;5.50;99.90;;;;;;4981803;28;20278;-89
2022/01/08 16:25:27;;;;;;;6.18;2.40;;;5.40;99.90;;;;;;4981567;28;20245;-88
2022/01/08 16:27:55;;;;;;;5.00;2.20;;;5.70;99.90;;;;;;4979879;28;20594;-89
2022/01/08 16:30:23;;;;;;;3.88;1.77;;;5.60;99.90;;;;;;4981764;28;20308;-88
2022/01/08 16:32:51;;;;;;;4.05;1.88;;;5.70;99.90;;;;;;4982860;28;20217;-89
2022/01/08 16:35:17;;;;;;;5.90;2.58;;;5.80;99.90;;;;;;4985840;28;20231;-89
2022/01/08 16:37:44;;;;;;;5.13;2.20;;;5.30;99.90;;;;;;4983042;28;20243;-89
2022/01/08 16:40:12;;;;;;;5.28;2.03;;;5.60;99.90;;;;;;4981194;28;20239;-89
2022/01/08 16:42:39;;;;;;;5.15;2.00;;;5.70;99.90;;;;;;4980909;28;20602;-89
2022/01/08 16:45:11;;;;;;;6.22;1.98;;;5.60;99.90;;;;;;4981513;28;20247;-88
2022/01/08 16:47:38;;;;;;;4.88;2.10;;;5.50;99.90;;;;;;4985870;28;20215;-87
2022/01/08 16:50:06;;;;;;;5.60;1.90;;;5.70;99.90;;;;;;4984186;28;20656;-88
2022/01/08 16:52:33;;;;;;;5.45;2.42;;;5.90;99.90;;;;;;4984128;28;20237;-89
2022/01/08 16:55:00;;;;;;;4.30;1.95;;;5.50;99.90;;;;;;4983992;28;20274;-89
2022/01/08 16:57:27;;;;;;;5.05;1.85;;;5.70;99.90;;;;;;4983517;28;20587;-87
2022/01/08 16:59:54;;;;;;;5.53;1.95;;;5.40;99.90;;;;;;4983241;28;20219;-88
2022/01/08 17:02:22;;;;;;;5.05;1.60;;;5.40;99.90;;;;;;4985295;28;20215;-88
2022/01/08 17:04:49;;;;;;;4.55;2.25;;;5.30;99.90;;;;;;4987140;28;20206;-89
2022/01/08 17:07:16;;;;;;;4.18;1.95;;;5.10;99.90;;;;;;4986423;28;20225;-88
2022/01/08 17:09:43;;;;;;;4.13;2.20;;;5.50;99.90;;;;;;4987737;28;20257;-88
2022/01/08 17:12:13;;;;;;;5.85;2.85;;;5.50;99.90;;;;;;4998806;28;20246;-88
2022/01/08 17:14:40;;;;;;;5.18;2.08;;;5.60;99.90;;;;;;4997805;28;20222;-89
2022/01/08 17:17:07;;;;;;;4.00;1.80;;;5.30;99.90;;;;;;4989295;28;20253;-89
2022/01/08 17:19:35;;;;;;;5.32;2.15;;;5.50;99.90;;;;;;4987664;28;20690;-88
2022/01/08 17:22:03;;;;;;;4.70;2.05;;;5.60;99.90;;;;;;4992425;28;20229;-89
2022/01/08 17:24:33;;;;;;;4.00;1.73;;;5.70;99.90;;;;;;4992271;28;20219;-88
2022/01/08 17:27:00;;;;;;;4.38;1.70;;;5.60;99.90;;;;;;4995103;28;20234;-89
2022/01/08 17:29:27;;;;;;;6.63;2.55;;;5.60;99.90;;;;;;4997600;28;20279;-88
2022/01/08 17:31:54;;;;;;;5.30;2.70;;;5.40;99.90;;;;;;4997124;28;20313;-89
2022/01/08 17:34:21;;;;;;;5.78;2.38;;;5.40;99.90;;;;;;4994071;28;20205;-88
2022/01/08 17:36:50;;;;;;;4.95;2.10;;;5.70;99.90;;;;;;4991410;28;20276;-87
2022/01/08 17:39:18;;;;;;;4.68;2.75;;;5.70;99.90;;;;;;4987351;28;20213;-89
2022/01/08 17:41:45;;;;;;;4.00;1.83;;;5.40;99.90;;;;;;4985296;28;20210;-90
2022/01/08 17:44:12;;;;;;;5.00;2.45;;;5.30;99.90;;;;;;4984305;28;20272;-89
2022/01/08 17:46:39;;;;;;;6.45;2.47;;;5.20;99.90;;;;;;4983976;28;20319;-88
2022/01/08 17:49:08;;;;;;;3.83;2.08;;;5.00;99.90;;;;;;4986654;28;20272;-88
2022/01/08 17:51:35;;;;;;;6.10;2.55;;;5.00;99.90;;;;;;4982974;28;20234;-88
2022/01/08 17:54:05;;;;;;;6.53;2.60;;;5.10;99.90;;;;;;4982739;28;20242;-87
2022/01/08 17:56:32;;;;;;;6.80;2.35;;;5.60;99.90;;;;;;4983934;28;20584;-89
2022/01/08 17:58:59;;;;;;;3.33;1.67;;;4.80;99.90;;;;;;4986112;28;20245;-88
2022/01/08 18:01:26;;;;;;;4.90;2.10;;;4.80;99.90;;;;;;4995375;28;20198;-89
2022/01/08 18:03:57;;;;;;;4.85;2.08;;;5.30;99.90;;;;;;4987678;28;20210;-88
2022/01/08 18:06:29;;;;;;;4.75;2.28;;;5.00;99.90;;;;;;4984292;28;20227;-88
2022/01/08 18:09:08;;;;;;;7.32;1.90;;;5.00;99.90;;;;;;4983906;28;20212;-89
2022/01/08 18:11:43;;;;;;;3.95;1.88;;;4.90;99.90;;;;;;4985677;28;20219;-89
2022/01/08 18:14:10;;;;;;;4.07;1.92;;;4.90;99.90;;;;;;4986874;28;20187;-88
2022/01/08 18:16:37;;;;;;;6.60;2.38;;;4.80;99.90;;;;;;5038665;23;20255;-87
2022/01/08 18:19:05;;;;;;;4.88;1.80;;;4.40;99.90;;;;;;5001303;28;20204;-87
2022/01/08 18:21:35;;;;;;;4.30;1.90;;;4.80;99.90;;;;;;5001522;28;20248;-88
2022/01/08 18:24:03;;;;;;;5.88;2.75;;;4.70;99.90;;;;;;5001996;28;20197;-88
2022/01/08 18:26:35;;;;;;;6.70;2.60;;;4.60;99.90;;;;;;5014322;28;20874;-88
2022/01/08 18:29:02;;;;;;;4.63;2.22;;;4.70;99.90;;;;;;5004986;28;20241;-88
2022/01/08 18:31:29;;;;;;;4.03;1.70;;;4.80;99.90;;;;;;5002813;28;20331;-88
2022/01/08 18:33:56;;;;;;;5.13;1.75;;;4.70;99.90;;;;;;5009871;28;20739;-88
2022/01/08 18:36:23;;;;;;;4.65;2.22;;;4.70;99.90;;;;;;5006545;28;20321;-88
2022/01/08 18:38:50;;;;;;;6.28;2.70;;;4.50;99.90;;;;;;4997250;28;20243;-88
2022/01/08 18:41:19;;;;;;;5.20;2.35;;;4.20;99.90;;;;;;4997305;28;20229;-88
2022/01/08 18:43:45;;;;;;;5.93;2.50;;;4.40;99.90;;;;;;5001012;28;20248;-87
2022/01/08 18:46:12;;;;;;;7.57;3.10;;;4.70;99.90;;;;;;5011337;28;20231;-87
2022/01/08 18:48:39;;;;;;;6.82;3.13;;;4.60;99.90;;;;;;5000810;28;20214;-89
2022/01/08 18:51:06;;;;;;;5.97;2.13;;;4.30;99.90;;;;;;4999352;28;20255;-88
2022/01/08 18:53:33;;;;;;;3.40;1.88;;;4.60;99.90;;;;;;4997474;28;20665;-88
2022/01/08 18:56:01;;;;;;;6.07;2.50;;;4.60;99.90;;;;;;4996877;28;20232;-88
2022/01/08 18:58:29;;;;;;;4.60;2.00;;;4.60;99.90;;;;;;4997648;28;20229;-89
2022/01/08 19:00:56;;;;;;;4.80;3.03;;;4.40;99.90;;;;;;4996835;28;20236;-88
2022/01/08 19:03:24;;;;;;;5.75;2.50;;;4.40;99.90;;;;;;4996877;28;20212;-89
2022/01/08 19:05:51;;;;;;;4.57;2.50;;;4.70;99.90;;;;;;4997044;28;20232;-88
2022/01/08 19:08:18;;;;;;;9.05;3.30;;;4.80;99.90;;;;;;4998051;28;20219;-87
2022/01/08 19:10:45;;;;;;;6.05;3.05;;;4.60;99.90;;;;;;4997219;28;20561;-88
2022/01/08 19:13:13;;;;;;;10.07;5.07;;;4.70;99.90;;;;;;4997419;28;20643;-88